Map

Track Data

SID SEASON NUMBER BASIN SUBBASIN NAME ISO_TIME NATURE LAT LON WMO_WIND WMO_PRES WMO_AGENCY TRACK_TYPE DIST2LAND LANDFALL IFLAG USA_AGENCY USA_ATCF_ID USA_LAT USA_LON USA_RECORD USA_STATUS USA_WIND USA_PRES USA_SSHS USA_R34_NE USA_R34_SE USA_R34_SW USA_R34_NW USA_R50_NE USA_R50_SE USA_R50_SW USA_R50_NW USA_R64_NE USA_R64_SE USA_R64_SW USA_R64_NW USA_POCI USA_ROCI USA_RMW USA_EYE TOKYO_LAT TOKYO_LON TOKYO_GRADE TOKYO_WIND TOKYO_PRES TOKYO_R50_DIR TOKYO_R50_LONG TOKYO_R50_SHORT TOKYO_R30_DIR TOKYO_R30_LONG TOKYO_R30_SHORT TOKYO_LAND CMA_LAT CMA_LON CMA_CAT CMA_WIND CMA_PRES HKO_LAT HKO_LON HKO_CAT HKO_WIND HKO_PRES NEWDELHI_LAT NEWDELHI_LON NEWDELHI_GRADE NEWDELHI_WIND NEWDELHI_PRES NEWDELHI_CI NEWDELHI_DP NEWDELHI_POCI REUNION_LAT REUNION_LON REUNION_TYPE REUNION_WIND REUNION_PRES REUNION_TNUM REUNION_CI REUNION_RMW REUNION_R34_NE REUNION_R34_SE REUNION_R34_SW REUNION_R34_NW REUNION_R50_NE REUNION_R50_SE REUNION_R50_SW REUNION_R50_NW REUNION_R64_NE REUNION_R64_SE REUNION_R64_SW REUNION_R64_NW BOM_LAT BOM_LON BOM_TYPE BOM_WIND BOM_PRES BOM_TNUM BOM_CI BOM_RMW BOM_R34_NE BOM_R34_SE BOM_R34_SW BOM_R34_NW BOM_R50_NE BOM_R50_SE BOM_R50_SW BOM_R50_NW BOM_R64_NE BOM_R64_SE BOM_R64_SW BOM_R64_NW BOM_ROCI BOM_POCI BOM_EYE BOM_POS_METHOD BOM_PRES_METHOD NADI_LAT NADI_LON NADI_CAT NADI_WIND NADI_PRES WELLINGTON_LAT WELLINGTON_LON WELLINGTON_WIND WELLINGTON_PRES DS824_LAT DS824_LON DS824_STAGE DS824_WIND DS824_PRES TD9636_LAT TD9636_LON TD9636_STAGE TD9636_WIND TD9636_PRES TD9635_LAT TD9635_LON TD9635_WIND TD9635_PRES TD9635_ROCI NEUMANN_LAT NEUMANN_LON NEUMANN_CLASS NEUMANN_WIND NEUMANN_PRES MLC_LAT MLC_LON MLC_CLASS MLC_WIND MLC_PRES USA_GUST BOM_GUST BOM_GUST_PER REUNION_GUST REUNION_GUST_PER USA_SEAHGT USA_SEARAD_NE USA_SEARAD_SE USA_SEARAD_SW USA_SEARAD_NW STORM_SPEED STORM_DIR
1954363S14119 1955 98 SI WA NOT_NAMED 1954-12-29 01:00:00 NR -14.0000 119.300 bom main 434 434 ______O_______ -1 -14.0000 119.300 6 216
1954363S14119 1955 98 SI WA NOT_NAMED 1954-12-29 03:00:00 NR -14.1575 119.184 main 459 459 ______P_______ -1 -14.1575 119.184 6 215
1954363S14119 1955 98 SI WA NOT_NAMED 1954-12-29 06:00:00 NR -14.3946 119.009 main 464 457 ______P_______ -1 -14.3946 119.009 6 215
1954363S14119 1955 98 SI WA NOT_NAMED 1954-12-29 09:00:00 NR -14.6338 118.833 main 467 456 ______P_______ -1 -14.6338 118.833 6 215
1954363S14119 1955 98 SI WA NOT_NAMED 1954-12-29 12:00:00 NR -14.8764 118.658 main 456 460 ______P_______ -1 -14.8764 118.658 6 215
1954363S14119 1955 98 SI WA NOT_NAMED 1954-12-29 15:00:00 NR -15.1237 118.483 main 463 458 ______P_______ -1 -15.1237 118.483 6 214
1954363S14119 1955 98 SI WA NOT_NAMED 1954-12-29 18:00:00 NR -15.3772 118.308 main 467 462 ______P_______ -1 -15.3772 118.308 6 213
1954363S14119 1955 98 SI WA NOT_NAMED 1954-12-29 21:00:00 NR -15.6382 118.133 main 476 468 ______P_______ -1 -15.6382 118.133 7 213
1954363S14119 1955 98 SI WA NOT_NAMED 1954-12-29 23:00:00 NR -15.8735 117.973 main 474 474 ______P___O___ -1 -15.8169 118.016 -16.1000 117.800 7 10 215
1954363S14119 1955 98 SI WA NOT_NAMED 1954-12-30 00:00:00 TS -16.0350 117.846 main 478 468 O_____P__OP___ jtwc_sh SH051955 -16.2000 117.700 -1 -15.9079 117.958 -15.9000 118.000 TC -16.1919 117.692 7 11 220
1954363S14119 1955 98 SI WA NOT_NAMED 1954-12-30 01:00:00 TS -16.1492 117.736 bom main 471 453 P_____O__PP___ SH051955 -16.2759 117.580 -1 -16.0000 117.900 -15.9920 117.945 TC -16.2841 117.584 7 8 224
1954363S14119 1955 98 SI WA NOT_NAMED 1954-12-30 03:00:00 TS -16.3388 117.540 main 457 433 P_____P__PP___ SH051955 -16.4326 117.343 -1 -16.1877 117.784 -16.1764 117.836 TC -16.4708 117.368 7 8 224
1954363S14119 1955 98 SI WA NOT_NAMED 1954-12-30 06:00:00 TS -16.6192 117.266 main 433 405 O_____P__PP___ jtwc_sh SH051955 -16.7000 117.000 -1 -16.4776 117.612 -16.4564 117.673 TC -16.7618 117.044 7 8 221
1954363S14119 1955 98 SI WA NOT_NAMED 1954-12-30 09:00:00 TS -16.9299 117.009 main 408 380 P_____P__PP___ SH051955 -17.0275 116.685 -1 -16.7768 117.446 -16.7432 117.513 TC -17.0747 116.718 7 8 217
1954363S14119 1955 98 SI WA NOT_NAMED 1954-12-30 11:00:00 TS -17.1532 116.846 main 380 369 P_____P__PO___ SH051955 -17.2724 116.492 -1 -16.9811 117.341 -16.9400 117.408 TC -17.3000 116.500 7 8 214
1954363S14119 1955 98 SI WA NOT_NAMED 1954-12-30 12:00:00 TS -17.2688 116.767 main 369 335 O_____P__PP___ jtwc_sh SH051955 -17.4000 116.400 -1 -17.0846 117.290 -17.0405 117.356 TC -17.4187 116.391 7 8 213
1954363S14119 1955 98 SI WA NOT_NAMED 1954-12-30 15:00:00 TS -17.6213 116.534 main 336 292 P_____P__PP___ SH051955 -17.7775 116.120 -1 -17.4003 117.146 -17.3514 117.205 TC -17.7998 116.081 7 8 209
1954363S14119 1955 98 SI WA NOT_NAMED 1954-12-30 18:00:00 TS -18.0042 116.343 main 293 251 O_____P__PP___ jtwc_sh SH051955 -18.2000 115.900 -1 -17.7231 117.018 -17.6795 117.061 TC -18.2184 115.835 7 9 202
1954363S14119 1955 98 SI WA NOT_NAMED 1954-12-30 21:00:00 TS -18.4220 116.197 main 251 218 P_____P__PP___ SH051955 -18.6774 115.725 -1 -18.0523 116.909 -18.0279 116.925 TC -18.6748 115.702 7 9 194
1954363S14119 1955 98 SI WA NOT_NAMED 1954-12-30 23:00:00 TS -18.7186 116.152 main 218 197 P_____P__PO___ SH051955 -19.0223 115.686 -1 -18.2750 116.849 -18.2731 116.841 TC -19.0000 115.700 7 9 184
1954363S14119 1955 98 SI WA NOT_NAMED 1954-12-31 00:00:00 TS -18.8717 116.150 main 197 186 O_____P__OP___ jtwc_sh SH051955 -19.2000 115.700 -1 -18.3872 116.823 -18.4000 116.800 TC 100 945 -19.1714 115.728 7 9 176
1954363S14119 1955 98 SI WA NOT_NAMED 1954-12-31 01:00:00 TS -19.0267 116.159 945 bom main 186 154 P_____O__PP___ SH051955 -19.3776 115.730 -1 -18.5000 116.800 945 -18.5299 116.761 TC -19.3484 115.775 7 10 173
1954363S14119 1955 98 SI WA NOT_NAMED 1954-12-31 03:00:00 TS -19.3395 116.216 main 154 94 P_____P__PP___ SH051955 -19.7424 115.860 -1 -18.6975 116.747 945 -18.8002 116.691 TC -19.7153 115.923 7 10 164
1954363S14119 1955 98 SI WA NOT_NAMED 1954-12-31 06:00:00 TS -19.8297 116.395 main 94 45 O_____P__PP___ jtwc_sh SH051955 -20.3000 116.200 -1 -19.0288 116.699 945 -19.2379 116.623 TC -20.2818 116.255 7 11 159
1954363S14119 1955 98 SI WA NOT_NAMED 1954-12-31 08:00:00 TS -20.1761 116.567 945 bom main 45 33 P_____O__PP___ SH051955 -20.6831 116.494 -1 -19.3000 116.700 945 -19.5560 116.615 TC -20.6582 116.532 7 12 154
1954363S14119 1955 98 SI WA NOT_NAMED 1954-12-31 09:00:00 TS -20.3470 116.667 main 33 0 P_____P__PP___ SH051955 -20.8726 116.662 -1 -19.4226 116.704 945 -19.7242 116.625 TC -20.8428 116.682 7 12 149
1954363S14119 1955 98 SI WA NOT_NAMED 1954-12-31 11:00:00 TS -20.6903 116.891 main 0 0 P_____P__PO___ SH051955 -21.2338 117.020 -1 -19.7033 116.735 945 -20.0808 116.681 TC -21.2000 117.000 7 12 148
1954363S14119 1955 98 SI WA NOT_NAMED 1954-12-31 12:00:00 TS -20.8588 117.007 main 0 0 O_____P__PP___ jtwc_sh SH051955 -21.4000 117.200 -1 -19.8751 116.762 945 -20.2701 116.729 TC -21.3486 117.143 7 12 147
1954363S14119 1955 98 SI WA NOT_NAMED 1954-12-31 15:00:00 TS -21.3735 117.373 945 bom main 0 0 P_____O__PP___ SH051955 -21.8073 117.693 -1 -20.6000 116.900 945 4 -20.8868 116.963 TC -21.7662 117.613 7 13 146
1954363S14119 1955 98 SI WA NOT_NAMED 1954-12-31 16:30:00 TS -21.6582 117.579 bom main 0 0 P_____O__PP___ SH051955 -21.9976 117.943 -1 -21.1000 117.000 -21.2253 117.139 TC -21.9706 117.869 7 14 144
1954363S14119 1955 98 SI WA NOT_NAMED 1954-12-31 18:00:00 TS -21.9554 117.826 main 0 0 O_____P__PP___ jtwc_sh SH051955 -22.2000 118.200 -1 -21.6108 117.232 -21.5856 117.361 TC -22.1805 118.137 7 16 141
1954363S14119 1955 98 SI WA NOT_NAMED 1954-12-31 20:00:00 TS -22.3746 118.208 bom main 0 0 P_____O__PP___ SH051955 -22.4956 118.549 -1 -22.3000 117.700 -22.1023 117.733 TC -22.4796 118.510 7 17 140
1954363S14119 1955 98 SI WA NOT_NAMED 1954-12-31 21:00:00 TS -22.5953 118.409 main 0 0 P_____P__PP___ SH051955 -22.6547 118.728 -1 -22.6481 117.928 -22.3771 117.955 TC -22.6416 118.703 7 18 139
1954363S14119 1955 98 SI WA NOT_NAMED 1954-12-31 23:00:00 TS -23.0623 118.847 main 0 0 P_____P__PO___ SH051955 -23.0051 119.103 -1 -23.3398 118.451 -22.9613 118.479 TC -23.0000 119.100 7 19 139
1954363S14119 1955 98 SI WA NOT_NAMED 1955-01-01 00:00:00 TS -23.3094 119.089 main 0 0 O_____P__PP___ jtwc_sh SH051955 -23.2000 119.300 -1 -23.6758 118.757 -23.2714 118.783 TC -23.1996 119.303 7 21 140
1954363S14119 1955 98 SI WA NOT_NAMED 1955-01-01 01:00:00 TS -23.5825 119.330 bom main 0 0 P_____O__PP___ SH051955 -23.4098 119.504 -1 -24.0000 119.100 -23.5939 119.118 TC -23.4124 119.509 7 22 138
1954363S14119 1955 98 SI WA NOT_NAMED 1955-01-01 03:00:00 TS -24.1409 119.901 main 0 0 P_____P__PP___ SH051955 -23.8657 119.931 -1 -24.5478 119.859 -24.2771 119.884 TC -23.8732 119.930 7 25 134
1954363S14119 1955 98 SI WA NOT_NAMED 1955-01-01 06:00:00 TS -25.0593 120.983 main 0 0 O_____P__OP___ jtwc_sh SH051955 -24.6000 120.600 -1 -25.3743 121.262 -25.4000 121.300 TC -24.6332 120.579 7 31 133
1954363S14119 1955 98 SI WA NOT_NAMED 1955-01-01 07:00:00 TS -25.5183 121.545 bom main 0 0 ______O__PP___ SH051955 -1 -25.7000 121.800 -25.8003 121.849 TC -24.8999 120.800 7 39 130
1954363S14119 1955 98 SI WA NOT_NAMED 1955-01-01 09:00:00 TS -26.2966 122.615 main 0 0 ______P__PP___ SH051955 -1 -26.4726 122.975 -26.6292 123.046 TC -25.4458 121.247 7 40 129
1954363S14119 1955 98 SI WA NOT_NAMED 1955-01-01 11:00:00 TS -27.1727 123.856 main 0 0 ______P__PO___ SH051955 -1 -27.3612 124.254 -27.4764 124.336 TC -26.0000 121.700 7 52 127
1954363S14119 1955 98 SI WA NOT_NAMED 1955-01-01 12:00:00 TS -27.8523 124.948 main 0 0 ______P__O____ -1 -27.8284 124.922 -27.9000 125.000 TC 7 57 126
1954363S14119 1955 98 SI WA NOT_NAMED 1955-01-01 13:00:00 NR -28.3000 125.600 bom main 0 ______O_______ -1 -28.3000 125.600 TC 7 44 128

About IBTrACS Database

This database is a web-friendly format of International Best Track Archive for Climate Stewardship (IBTrACS), a global best track data archive curated by NOAA dating back to 1842.

Updated: 2021-12-03